Time;durP1;ratioP1;P1;durP2;ratioP2;P2;SDS_P1;SDS_P2;PMS_P1;PMS_P2;Temp;Humidity;BMP_temperature;BMP_pressure;BME280_temperature;BME280_humidity;BME280_pressure;Samples;Min_cycle;Max_cycle;Signal;HPM_P1;HPM_P2
2020/12/09 00:01:29;;;;;;;30.65;18.40;;;;;;;2.55;80.08;97908.03;6049460;23;20220;-89
2020/12/09 00:04:12;;;;;;;27.05;17.40;;;;;;;2.44;79.71;97904.25;6075134;23;20192;-90
2020/12/09 00:06:39;;;;;;;25.15;16.90;;;;;;;2.41;80.04;97893.78;6042312;23;20219;-89
2020/12/09 00:09:11;;;;;;;26.83;18.75;;;;;;;2.39;80.65;97891.19;6088450;23;20204;-89
2020/12/09 00:11:38;;;;;;;28.98;19.02;;;;;;;2.42;80.43;97898.13;6049901;23;20209;-90
2020/12/09 00:14:08;;;;;;;25.42;17.52;;;;;;;2.42;80.54;97893.69;6049019;23;20176;-90
2020/12/09 00:16:35;;;;;;;26.05;16.50;;;;;;;2.41;80.67;97889.34;6075318;23;20173;-88
2020/12/09 00:19:04;;;;;;;28.88;17.75;;;;;;;2.40;80.62;97902.69;6047417;23;20212;-88
2020/12/09 00:21:31;;;;;;;26.40;17.25;;;;;;;2.37;80.65;97895.72;6048434;23;20268;-88
2020/12/09 00:24:00;;;;;;;31.63;19.23;;;;;;;2.33;80.85;97898.63;6047645;23;20232;-89
2020/12/09 00:26:27;;;;;;;29.50;18.58;;;;;;;2.28;81.24;97901.53;6052430;23;20206;-89
2020/12/09 00:28:55;;;;;;;28.98;19.35;;;;;;;2.31;81.37;97901.34;6055152;23;20180;-89
2020/12/09 00:31:24;;;;;;;28.60;19.20;;;;;;;2.24;81.49;97902.63;6048755;23;20219;-89
2020/12/09 00:33:52;;;;;;;32.03;19.05;;;;;;;2.18;81.24;97918.84;6045472;23;20303;-89
2020/12/09 00:36:20;;;;;;;26.27;18.08;;;;;;;2.20;81.43;97906.34;6049408;23;20204;-89
2020/12/09 00:38:48;;;;;;;33.70;20.25;;;;;;;2.16;81.29;97903.94;6020511;23;20208;-88
2020/12/09 00:41:19;;;;;;;29.95;17.27;;;;;;;2.15;81.50;97916.38;6043967;23;20200;-89
2020/12/09 00:43:45;;;;;;;33.15;19.42;;;;;;;2.11;81.83;97905.97;6045958;23;20195;-89
2020/12/09 00:46:23;;;;;;;27.45;17.05;;;;;;;2.07;81.83;97915.03;6038242;23;20212;-89
2020/12/09 00:48:54;;;;;;;29.20;18.20;;;;;;;2.11;81.68;97916.56;6061610;23;20203;-89
2020/12/09 00:51:25;;;;;;;27.00;15.55;;;;;;;2.36;80.87;97912.59;6045989;23;20727;-90
2020/12/09 00:53:56;;;;;;;28.75;17.35;;;;;;;2.24;81.09;97918.53;6046364;23;20268;-90
2020/12/09 00:56:26;;;;;;;25.45;16.13;;;;;;;2.14;81.21;97925.25;6062458;23;20215;-89
2020/12/09 00:58:56;;;;;;;26.63;16.13;;;;;;;2.04;81.65;97931.06;6045579;23;20161;-89
2020/12/09 01:01:24;;;;;;;28.70;17.63;;;;;;;1.95;82.20;97929.78;6038201;23;20220;-89
2020/12/09 01:04:05;;;;;;;31.63;17.52;;;;;;;1.92;82.18;97931.72;6060609;23;20676;-89
2020/12/09 01:06:33;;;;;;;28.23;16.67;;;;;;;2.01;82.12;97936.56;6029861;23;20276;-90
2020/12/09 01:09:06;;;;;;;31.98;19.45;;;;;;;2.00;82.24;97932.19;6043267;23;20557;-90
2020/12/09 01:11:33;;;;;;;32.35;18.30;;;;;;;1.99;82.32;97933.97;6019956;23;20696;-88
2020/12/09 01:14:04;;;;;;;30.58;17.02;;;;;;;1.99;82.36;97928.66;6023477;23;20196;-88
2020/12/09 01:16:30;;;;;;;29.90;19.10;;;;;;;2.16;82.25;97933.97;6048623;23;20590;-88
2020/12/09 01:18:56;;;;;;;32.75;19.25;;;;;;;2.33;81.76;97931.28;6047758;23;20268;-88
2020/12/09 01:21:27;;;;;;;29.55;18.95;;;;;;;2.64;80.37;97934.06;6037280;23;20213;-89
2020/12/09 01:23:54;;;;;;;29.30;18.27;;;;;;;2.70;80.10;97941.69;6024322;23;20268;-88
2020/12/09 01:26:20;;;;;;;31.30;20.17;;;;;;;2.46;80.93;97945.66;6053342;23;20176;-89
2020/12/09 01:28:46;;;;;;;32.80;19.95;;;;;;;2.45;81.16;97951.88;6054914;23;20238;-90
2020/12/09 01:31:17;;;;;;;32.45;19.83;;;;;;;2.53;81.04;97962.09;6059437;23;20209;-90
2020/12/09 01:33:43;;;;;;;31.17;19.30;;;;;;;2.48;81.40;97958.81;6045744;23;20302;-90
2020/12/09 01:36:09;;;;;;;31.70;18.42;;;;;;;2.80;79.97;97955.34;6035773;23;20226;-89
2020/12/09 01:38:36;;;;;;;30.67;20.23;;;;;;;2.82;79.39;97950.81;6045572;23;20208;-89
2020/12/09 01:41:03;;;;;;;32.88;20.90;;;;;;;2.75;80.12;97955.59;6024510;23;20217;-88
2020/12/09 01:43:29;;;;;;;34.08;19.83;;;;;;;2.71;80.47;97955.84;6097947;23;20552;-88
2020/12/09 01:45:55;;;;;;;35.72;22.98;;;;;;;2.58;80.89;97952.13;6027246;23;20375;-88
2020/12/09 01:48:23;;;;;;;37.83;23.65;;;;;;;2.44;81.20;97955.47;6045322;23;20232;-89
2020/12/09 01:50:51;;;;;;;35.25;22.17;;;;;;;2.46;81.18;97950.97;6069549;23;20208;-89
2020/12/09 01:53:17;;;;;;;35.97;23.17;;;;;;;2.37;81.91;97950.59;6044986;23;20157;-90
2020/12/09 01:55:46;;;;;;;37.08;22.77;;;;;;;2.31;81.87;97950.91;6050057;23;20177;-90
2020/12/09 01:58:12;;;;;;;34.92;21.83;;;;;;;2.21;82.38;97963.78;6083187;23;20192;-86
2020/12/09 02:00:41;;;;;;;37.60;23.08;;;;;;;2.13;82.64;97960.63;6068755;23;20212;-89
2020/12/09 02:03:07;;;;;;;37.05;23.40;;;;;;;2.06;83.16;97961.88;6092302;23;20203;-90
2020/12/09 02:05:34;;;;;;;41.15;23.48;;;;;;;2.08;83.40;97969.75;6086456;23;20228;-89
2020/12/09 02:08:00;;;;;;;41.40;23.60;;;;;;;2.08;83.25;97962.69;6042698;23;20153;-88
2020/12/09 02:10:26;;;;;;;44.90;25.20;;;;;;;2.07;83.62;97963.59;6061953;23;20208;-89
2020/12/09 02:12:52;;;;;;;45.15;23.70;;;;;;;2.11;83.25;97969.59;6058781;23;20192;-89
2020/12/09 02:15:19;;;;;;;38.22;22.80;;;;;;;2.13;83.50;97971.25;6069088;23;20669;-89
2020/12/09 02:17:46;;;;;;;38.20;22.25;;;;;;;2.25;82.75;97972.44;6049322;23;20233;-89
2020/12/09 02:20:12;;;;;;;37.97;22.73;;;;;;;2.31;83.00;97978.25;6016247;23;20160;-90
2020/12/09 02:22:39;;;;;;;38.80;22.65;;;;;;;2.36;82.39;97986.84;6065207;23;20183;-89
2020/12/09 02:25:05;;;;;;;36.15;22.73;;;;;;;2.46;81.95;97977.50;6084667;23;20208;-88
2020/12/09 02:27:32;;;;;;;35.25;21.60;;;;;;;2.44;81.58;97983.81;6058562;23;20191;-86
2020/12/09 02:29:58;;;;;;;37.00;21.65;;;;;;;2.47;81.62;97987.16;6054723;23;20230;-87
2020/12/09 02:32:24;;;;;;;31.85;21.40;;;;;;;2.51;81.39;98001.97;6050925;23;20219;-86
2020/12/09 02:34:50;;;;;;;37.17;21.17;;;;;;;2.63;81.46;97990.72;6048580;23;20175;-84
2020/12/09 02:37:17;;;;;;;33.10;21.80;;;;;;;2.59;81.14;97994.50;6072111;23;20207;-86
2020/12/09 02:39:44;;;;;;;32.40;22.17;;;;;;;2.74;80.74;97991.03;6070678;23;20539;-86
2020/12/09 02:42:10;;;;;;;36.42;21.35;;;;;;;2.74;80.80;97991.03;6042566;23;20271;-86
2020/12/09 02:44:36;;;;;;;37.70;21.45;;;;;;;2.92;80.39;97995.38;6041464;23;20291;-87
2020/12/09 02:47:02;;;;;;;36.75;21.85;;;;;;;2.90;79.87;97989.25;6043131;23;20173;-85
2020/12/09 02:49:28;;;;;;;36.22;21.45;;;;;;;2.87;79.78;97988.56;6016657;23;20268;-87
2020/12/09 02:51:54;;;;;;;34.47;21.30;;;;;;;2.84;79.75;97986.94;6018664;23;20231;-87
2020/12/09 02:54:20;;;;;;;35.33;21.58;;;;;;;2.98;78.96;97997.69;6057177;23;20283;-86
2020/12/09 02:56:48;;;;;;;34.13;20.98;;;;;;;2.80;79.68;97992.50;6049137;23;20227;-87
2020/12/09 02:59:14;;;;;;;30.83;19.40;;;;;;;2.81;80.06;97991.56;6046117;23;20893;-87
2020/12/09 03:01:40;;;;;;;34.83;20.92;;;;;;;2.73;80.29;97997.28;6073451;23;20198;-87
2020/12/09 03:04:06;;;;;;;35.58;21.77;;;;;;;2.88;80.02;97993.81;6022817;23;20208;-88
2020/12/09 03:06:32;;;;;;;38.65;23.05;;;;;;;2.92;79.94;97992.72;6055166;23;20288;-87
2020/12/09 03:08:59;;;;;;;33.92;21.60;;;;;;;2.91;80.11;98006.94;6053834;23;20688;-87
2020/12/09 03:11:25;;;;;;;35.17;20.98;;;;;;;2.78;80.52;98003.22;6071709;23;20214;-87
2020/12/09 03:13:51;;;;;;;34.20;21.67;;;;;;;2.96;79.94;98004.88;6050320;23;20171;-86
2020/12/09 03:16:17;;;;;;;33.85;22.30;;;;;;;3.03;79.66;98006.25;6059999;23;20216;-85
2020/12/09 03:18:44;;;;;;;37.80;22.20;;;;;;;2.88;79.99;98001.78;6031866;23;20215;-86
2020/12/09 03:21:10;;;;;;;31.45;21.08;;;;;;;2.87;80.44;98002.72;6054156;23;20665;-84
2020/12/09 03:23:37;;;;;;;36.60;22.77;;;;;;;2.92;80.43;98007.78;6073257;23;20687;-86
2020/12/09 03:26:04;;;;;;;35.90;21.15;;;;;;;2.92;79.92;98005.13;6053523;23;20175;-87
2020/12/09 03:28:32;;;;;;;34.83;21.27;;;;;;;2.88;80.29;98012.38;6061481;23;20299;-86
2020/12/09 03:30:58;;;;;;;35.88;20.48;;;;;;;2.84;80.40;98010.81;6057914;23;20196;-85
2020/12/09 03:33:27;;;;;;;34.72;21.98;;;;;;;2.84;80.94;98013.47;6063689;23;20216;-85
2020/12/09 03:35:53;;;;;;;38.10;22.90;;;;;;;2.83;80.92;98013.59;6072413;23;20213;-87
2020/12/09 03:38:19;;;;;;;35.92;22.05;;;;;;;2.88;80.85;98015.03;6059591;23;20165;-85
2020/12/09 03:40:45;;;;;;;34.50;21.33;;;;;;;2.95;80.78;98020.91;6032578;23;20193;-86
2020/12/09 03:43:12;;;;;;;31.75;21.38;;;;;;;3.09;80.39;98021.84;6041112;23;20240;-86
2020/12/09 03:45:38;;;;;;;38.33;22.08;;;;;;;3.18;80.30;98025.81;6089882;23;20283;-87
2020/12/09 03:48:04;;;;;;;40.63;24.55;;;;;;;3.09;80.10;98024.50;6061286;23;20264;-87
2020/12/09 03:50:56;;;;;;;35.55;20.90;;;;;;;3.19;79.95;98032.84;6021460;23;20208;-87
2020/12/09 03:53:22;;;;;;;36.63;22.98;;;;;;;3.09;80.20;98037.78;6020728;23;20161;-87
2020/12/09 03:55:48;;;;;;;32.92;22.17;;;;;;;3.20;80.24;98043.41;6023569;23;20180;-87
2020/12/09 03:58:16;;;;;;;37.83;22.95;;;;;;;3.10;80.45;98034.22;6082058;23;20199;-86
2020/12/09 04:00:42;;;;;;;34.08;23.08;;;;;;;3.13;80.74;98041.13;6087200;23;20212;-87
2020/12/09 04:03:08;;;;;;;36.10;23.70;;;;;;;3.26;80.14;98037.75;6071749;23;20215;-86
2020/12/09 04:05:34;;;;;;;35.17;23.25;;;;;;;3.40;79.83;98029.06;6043315;23;20197;-86
2020/12/09 04:08:00;;;;;;;39.78;23.15;;;;;;;3.40;79.65;98024.59;6045962;23;20191;-87
2020/12/09 04:10:27;;;;;;;35.00;22.10;;;;;;;3.39;79.82;98030.84;6020448;23;20288;-87
2020/12/09 04:12:53;;;;;;;40.75;23.00;;;;;;;3.38;79.91;98028.25;6043503;23;20244;-88
2020/12/09 04:15:19;;;;;;;36.78;23.92;;;;;;;3.47;79.65;98033.94;6058281;23;20242;-85
2020/12/09 04:17:46;;;;;;;34.90;21.73;;;;;;;3.38;79.77;98037.09;6048524;23;20522;-86
2020/12/09 04:20:12;;;;;;;33.80;21.50;;;;;;;3.41;79.59;98038.75;6045829;23;20239;-88
2020/12/09 04:22:52;;;;;;;38.80;22.45;;;;;;;3.24;80.26;98041.44;6024129;23;20183;-87
2020/12/09 04:25:18;;;;;;;32.95;22.02;;;;;;;3.20;80.58;98040.75;6070045;23;20207;-87
2020/12/09 04:27:44;;;;;;;36.63;22.45;;;;;;;3.18;81.04;98042.63;6048475;23;20216;-86
2020/12/09 04:30:10;;;;;;;37.03;22.20;;;;;;;3.28;80.90;98043.00;6071951;23;20204;-86
2020/12/09 04:32:36;;;;;;;32.90;21.40;;;;;;;3.42;80.11;98035.13;6044092;23;20200;-86
2020/12/09 04:35:04;;;;;;;34.05;21.52;;;;;;;3.36;80.32;98032.81;6060611;23;20176;-86
2020/12/09 04:37:30;;;;;;;34.85;22.60;;;;;;;3.31;80.67;98038.38;6080920;23;20227;-86
2020/12/09 04:39:57;;;;;;;33.17;21.80;;;;;;;3.35;80.78;98039.91;6054682;23;20598;-87
2020/12/09 04:42:25;;;;;;;35.47;21.50;;;;;;;3.36;80.84;98044.31;6058620;23;20209;-87
2020/12/09 04:44:52;;;;;;;34.17;22.42;;;;;;;3.34;80.74;98048.81;6047317;23;20507;-86
2020/12/09 04:47:28;;;;;;;34.10;22.30;;;;;;;3.26;80.96;98056.34;6092685;23;20233;-87
2020/12/09 04:50:09;;;;;;;35.10;22.33;;;;;;;3.30;80.86;98051.72;6070033;23;20598;-87
2020/12/09 04:52:41;;;;;;;37.47;23.25;;;;;;;3.32;81.01;98058.69;6068061;23;20268;-87
2020/12/09 04:55:10;;;;;;;35.80;21.13;;;;;;;3.34;80.60;98053.28;6019805;23;20303;-87
2020/12/09 04:57:43;;;;;;;35.03;21.90;;;;;;;3.33;80.99;98056.91;6043141;23;20623;-87
2020/12/09 05:00:13;;;;;;;30.63;19.90;;;;;;;3.34;80.92;98059.44;6039741;23;20252;-85
2020/12/09 05:02:45;;;;;;;31.02;20.52;;;;;;;3.35;80.85;98055.84;6075023;23;20200;-87
2020/12/09 05:05:16;;;;;;;28.80;19.45;;;;;;;3.33;80.05;98047.13;6042561;23;20244;-87
2020/12/09 05:07:52;;;;;;;28.63;18.38;;;;;;;3.32;79.98;98048.06;6048821;23;20165;-87
2020/12/09 05:10:23;;;;;;;28.10;19.13;;;;;;;3.27;80.29;98058.06;6029115;23;20273;-87
2020/12/09 05:12:51;;;;;;;30.35;19.60;;;;;;;3.31;80.55;98061.41;6052981;23;20208;-87
2020/12/09 05:15:23;;;;;;;32.58;21.45;;;;;;;3.80;78.42;98071.94;6052356;23;20208;-86
2020/12/09 05:18:07;;;;;;;35.83;22.95;;;;;;;3.66;78.62;98076.31;6027831;23;20307;-87
2020/12/09 05:20:37;;;;;;;32.00;20.02;;;;;;;3.56;78.88;98081.28;6042520;23;20215;-87
2020/12/09 05:23:05;;;;;;;26.65;18.55;;;;;;;3.39;79.66;98083.09;6050872;23;20176;-84
2020/12/09 05:25:33;;;;;;;33.38;19.92;;;;;;;3.32;79.95;98087.03;6045505;23;20209;-87
2020/12/09 05:28:01;;;;;;;30.17;19.55;;;;;;;3.33;79.93;98094.94;6032915;23;20232;-87
2020/12/09 05:30:46;;;;;;;31.15;20.00;;;;;;;3.29;80.10;98096.03;6041890;23;20205;-86
2020/12/09 05:33:19;;;;;;;29.70;19.52;;;;;;;3.27;79.91;98103.22;6054967;23;20204;-87
2020/12/09 05:36:00;;;;;;;29.55;19.40;;;;;;;3.30;80.25;98104.84;6037677;23;20272;-88
2020/12/09 05:38:28;;;;;;;29.63;20.10;;;;;;;3.29;80.32;98104.00;6062858;23;20642;-88
2020/12/09 05:40:55;;;;;;;33.70;21.42;;;;;;;3.35;79.89;98106.31;6042476;23;20196;-88
2020/12/09 05:43:22;;;;;;;32.55;20.85;;;;;;;3.34;80.18;98106.44;6016717;23;20213;-87
2020/12/09 05:45:48;;;;;;;30.95;19.80;;;;;;;3.42;80.04;98107.75;6018776;23;20211;-87
2020/12/09 05:48:17;;;;;;;32.13;21.05;;;;;;;3.74;78.82;98108.66;6029482;23;20669;-88
2020/12/09 05:50:56;;;;;;;29.33;19.48;;;;;;;3.96;77.92;98111.84;6039360;23;20216;-88
2020/12/09 05:53:34;;;;;;;32.45;20.75;;;;;;;3.92;78.27;98113.81;5995714;23;20153;-88
2020/12/09 05:56:18;;;;;;;35.50;22.17;;;;;;;4.02;78.29;98119.47;6028578;23;20156;-87
2020/12/09 05:58:46;;;;;;;37.25;22.52;;;;;;;4.04;77.95;98114.94;6071247;23;20216;-87
2020/12/09 06:01:14;;;;;;;32.85;21.95;;;;;;;4.03;78.51;98118.53;6055160;23;20207;-89
2020/12/09 06:03:50;;;;;;;33.67;22.20;;;;;;;4.03;78.19;98123.84;6070635;23;20215;-86
2020/12/09 06:06:21;;;;;;;35.65;22.08;;;;;;;3.92;78.75;98116.47;6046923;23;20215;-86
2020/12/09 06:08:55;;;;;;;39.80;22.33;;;;;;;3.78;78.85;98127.00;6051760;23;20196;-86
2020/12/09 06:11:31;;;;;;;33.10;22.95;;;;;;;3.76;79.02;98120.91;6057999;23;20216;-87
2020/12/09 06:13:58;;;;;;;33.42;23.20;;;;;;;3.76;79.60;98128.03;6064101;23;20148;-86
2020/12/09 06:16:25;;;;;;;33.33;21.15;;;;;;;3.61;79.65;98124.38;6066699;23;20207;-87
2020/12/09 06:18:56;;;;;;;35.45;22.08;;;;;;;3.80;79.39;98117.13;6060061;23;20263;-88
2020/12/09 06:21:23;;;;;;;34.03;21.63;;;;;;;3.88;79.05;98114.06;6071572;23;20212;-88
2020/12/09 06:23:54;;;;;;;37.38;22.05;;;;;;;3.80;79.19;98117.13;6072365;23;20240;-86
2020/12/09 06:26:20;;;;;;;31.80;21.52;;;;;;;3.78;79.33;98113.72;6050402;23;20192;-87
2020/12/09 06:28:49;;;;;;;40.13;21.80;;;;;;;3.78;79.29;98116.38;6080215;23;20192;-86
2020/12/09 06:31:21;;;;;;;33.30;21.70;;;;;;;3.72;79.39;98116.69;6061567;23;20206;-83
2020/12/09 06:33:51;;;;;;;34.00;21.98;;;;;;;3.74;79.76;98119.28;6065836;23;20235;-86
2020/12/09 06:36:26;;;;;;;34.83;22.38;;;;;;;3.72;79.88;98121.19;6054161;23;20271;-86
2020/12/09 06:39:04;;;;;;;34.03;21.80;;;;;;;3.66;80.03;98119.69;6074090;23;20206;-88
2020/12/09 06:41:34;;;;;;;34.00;21.40;;;;;;;3.58;80.18;98121.91;6050412;23;20259;-87
2020/12/09 06:44:13;;;;;;;35.85;22.13;;;;;;;3.62;80.42;98130.56;6081413;23;20247;-86
2020/12/09 06:46:45;;;;;;;36.58;22.83;;;;;;;3.57;80.49;98130.81;6089359;23;20275;-87
2020/12/09 06:49:33;;;;;;;34.92;22.98;;;;;;;3.61;80.40;98129.69;6058380;23;20210;-88
2020/12/09 06:52:09;;;;;;;35.85;23.05;;;;;;;3.67;80.67;98129.38;6080914;23;20212;-88
2020/12/09 06:54:39;;;;;;;34.50;21.77;;;;;;;3.73;79.91;98131.69;6049311;23;20218;-87
2020/12/09 06:57:34;;;;;;;38.10;23.05;;;;;;;3.78;79.92;98136.78;6049530;23;20200;-87
2020/12/09 07:00:26;;;;;;;32.88;21.80;;;;;;;3.85;79.72;98144.34;6058449;23;20203;-87
2020/12/09 07:02:53;;;;;;;32.67;20.10;;;;;;;3.76;80.15;98142.19;6049569;23;20207;-87
2020/12/09 07:05:25;;;;;;;29.75;19.25;;;;;;;3.75;79.85;98148.44;6051964;23;20274;-87
2020/12/09 07:07:59;;;;;;;32.95;21.63;;;;;;;3.97;79.18;98135.69;6064213;23;20152;-86
2020/12/09 07:10:28;;;;;;;30.52;20.40;;;;;;;4.00;78.75;98145.31;6066951;23;20262;-86
2020/12/09 07:13:06;;;;;;;30.50;19.30;;;;;;;3.95;79.04;98136.72;6067935;23;20354;-86
2020/12/09 07:15:34;;;;;;;32.08;19.70;;;;;;;4.04;78.55;98152.19;6067507;23;20191;-86
2020/12/09 07:18:00;;;;;;;30.88;20.23;;;;;;;3.98;78.65;98148.03;6066117;23;20200;-86
2020/12/09 07:20:26;;;;;;;31.90;18.98;;;;;;;3.95;78.55;98158.84;6065018;23;20195;-87
2020/12/09 07:22:52;;;;;;;29.50;18.20;;;;;;;4.10;77.90;98158.00;6058657;23;20354;-87
2020/12/09 07:25:19;;;;;;;26.90;18.40;;;;;;;4.09;78.37;98169.59;6048192;23;20218;-87
2020/12/09 07:27:46;;;;;;;30.65;19.88;;;;;;;4.11;77.94;98178.34;6069994;23;20745;-88
2020/12/09 07:30:15;;;;;;;27.95;17.55;;;;;;;4.20;77.63;98180.50;6071205;23;20215;-89
2020/12/09 07:32:42;;;;;;;29.30;19.05;;;;;;;4.08;77.47;98191.81;6065425;23;20206;-86
2020/12/09 07:35:10;;;;;;;30.88;20.95;;;;;;;4.06;77.85;98198.16;6070092;23;20171;-87
2020/12/09 07:37:40;;;;;;;28.67;17.83;;;;;;;4.08;78.07;98205.13;6072273;23;20172;-86
2020/12/09 07:40:22;;;;;;;27.02;18.90;;;;;;;4.10;78.22;98203.22;6045589;23;20214;-87
2020/12/09 07:42:59;;;;;;;25.73;18.60;;;;;;;4.20;78.03;98207.13;6058443;23;20203;-86
2020/12/09 07:45:28;;;;;;;29.38;18.55;;;;;;;4.21;77.85;98214.16;6062122;23;20218;-87
2020/12/09 07:48:03;;;;;;;28.33;18.88;;;;;;;4.22;77.87;98215.84;6063472;23;20279;-87
2020/12/09 07:50:29;;;;;;;30.85;21.05;;;;;;;4.22;77.83;98207.00;6085555;23;20246;-86
2020/12/09 07:52:55;;;;;;;26.40;18.90;;;;;;;4.24;77.67;98221.09;6063848;23;20172;-87
2020/12/09 07:55:21;;;;;;;29.52;18.90;;;;;;;4.32;77.62;98216.22;6061679;23;20204;-85
2020/12/09 07:57:48;;;;;;;32.13;17.35;;;;;;;4.33;77.15;98218.78;6065157;23;20216;-86
2020/12/09 08:00:16;;;;;;;27.75;17.20;;;;;;;4.38;76.86;98211.44;6065515;23;20200;-85
2020/12/09 08:02:45;;;;;;;25.77;16.52;;;;;;;4.71;75.64;98206.00;6080519;23;20200;-88
2020/12/09 08:05:20;;;;;;;24.15;17.65;;;;;;;4.86;74.90;98184.66;6045446;23;20214;-87
2020/12/09 08:07:58;;;;;;;25.58;18.02;;;;;;;4.81;74.90;98178.75;6075682;23;20223;-87
2020/12/09 08:10:31;;;;;;;28.55;18.52;;;;;;;4.69;75.56;98187.44;6046939;23;20222;-87
2020/12/09 08:13:07;;;;;;;30.05;18.25;;;;;;;4.68;75.69;98188.38;6048876;23;20271;-87
2020/12/09 08:15:35;;;;;;;27.83;19.08;;;;;;;4.71;75.42;98192.69;6070480;23;20212;-86
2020/12/09 08:18:03;;;;;;;28.70;18.98;;;;;;;4.61;76.17;98191.50;6071505;23;20199;-87
2020/12/09 08:20:29;;;;;;;28.38;19.15;;;;;;;4.59;76.04;98199.56;6050743;23;20235;-87
2020/12/09 08:23:01;;;;;;;29.92;19.17;;;;;;;4.68;75.46;98214.16;6075673;23;20635;-87
2020/12/09 08:25:29;;;;;;;26.30;17.98;;;;;;;4.62;75.51;98204.69;6072209;23;20203;-87
2020/12/09 08:28:04;;;;;;;32.13;20.63;;;;;;;4.59;75.84;98209.34;6047526;23;20235;-87
2020/12/09 08:30:30;;;;;;;28.85;19.02;;;;;;;4.67;75.70;98199.97;6064075;23;20259;-86
2020/12/09 08:32:57;;;;;;;24.05;16.38;;;;;;;4.57;75.32;98204.09;6048515;23;20203;-87
2020/12/09 08:35:24;;;;;;;27.63;17.83;;;;;;;4.60;75.65;98206.59;6048568;23;20182;-87
2020/12/09 08:37:51;;;;;;;30.48;19.17;;;;;;;4.66;75.09;98211.59;6051380;23;20169;-88
2020/12/09 08:40:17;;;;;;;32.17;18.25;;;;;;;4.64;75.62;98221.47;6070002;23;20240;-86
2020/12/09 08:42:51;;;;;;;27.38;18.08;;;;;;;4.74;75.01;98225.31;6048154;23;20219;-87
2020/12/09 08:45:17;;;;;;;29.90;19.02;;;;;;;4.61;75.49;98226.94;6074377;23;20219;-88
2020/12/09 08:47:43;;;;;;;32.17;18.80;;;;;;;4.87;74.75;98221.00;6050072;23;20204;-88
2020/12/09 08:50:13;;;;;;;32.38;21.42;;;;;;;4.78;74.66;98226.00;6029513;23;20652;-86
2020/12/09 08:52:40;;;;;;;32.00;18.48;;;;;;;4.76;74.96;98225.25;6039423;23;20199;-87
2020/12/09 08:55:06;;;;;;;27.92;17.75;;;;;;;4.74;75.22;98232.47;6079714;23;20223;-85
2020/12/09 08:57:32;;;;;;;25.83;18.23;;;;;;;4.70;74.92;98237.09;6066670;23;20211;-86
2020/12/09 08:59:58;;;;;;;30.02;18.27;;;;;;;4.89;74.80;98240.41;6084491;23;20199;-88
2020/12/09 09:02:25;;;;;;;30.52;20.02;;;;;;;4.85;75.50;98235.34;6064014;23;20211;-85
2020/12/09 09:04:53;;;;;;;28.83;19.42;;;;;;;4.83;75.75;98238.13;6066116;23;20191;-87
2020/12/09 09:07:19;;;;;;;31.63;19.42;;;;;;;4.86;75.95;98245.94;6051838;23;20831;-87
2020/12/09 09:09:47;;;;;;;33.40;19.23;;;;;;;4.90;75.98;98241.28;6071437;23;20208;-87
2020/12/09 09:12:13;;;;;;;32.67;20.55;;;;;;;4.88;76.19;98248.50;6046284;23;20204;-87
2020/12/09 09:14:43;;;;;;;28.25;19.48;;;;;;;4.92;75.94;98256.22;6068139;23;20200;-87
2020/12/09 09:17:10;;;;;;;30.17;18.98;;;;;;;4.88;76.01;98252.00;6047975;23;20168;-88
2020/12/09 09:19:36;;;;;;;33.55;20.25;;;;;;;4.88;76.01;98251.19;6073552;23;20198;-87
2020/12/09 09:22:02;;;;;;;37.33;23.23;;;;;;;4.91;76.18;98258.97;6082590;23;20208;-86
2020/12/09 09:24:28;;;;;;;31.38;19.80;;;;;;;4.93;75.94;98252.63;6035662;23;20208;-88
2020/12/09 09:26:54;;;;;;;33.53;20.38;;;;;;;5.01;75.78;98258.34;6072494;23;20715;-87
2020/12/09 09:29:21;;;;;;;29.30;18.88;;;;;;;5.08;75.81;98259.72;6072147;23;20169;-87
2020/12/09 09:31:47;;;;;;;30.55;19.30;;;;;;;5.08;75.46;98256.22;6050938;23;20202;-88
2020/12/09 09:34:14;;;;;;;33.28;20.23;;;;;;;5.34;74.29;98259.09;6048995;23;20204;-87
2020/12/09 09:36:42;;;;;;;26.48;18.50;;;;;;;5.48;72.98;98256.47;6049627;23;20207;-88
2020/12/09 09:39:11;;;;;;;26.52;16.83;;;;;;;5.65;72.27;98261.66;6086253;23;20259;-86
2020/12/09 09:41:39;;;;;;;29.27;18.35;;;;;;;5.37;72.70;98256.25;6064489;23;20202;-85
2020/12/09 09:44:09;;;;;;;28.52;18.73;;;;;;;5.24;73.12;98259.69;6059055;23;20710;-87
2020/12/09 09:46:37;;;;;;;30.25;17.52;;;;;;;5.23;73.37;98257.97;6053946;23;20207;-86
2020/12/09 09:49:03;;;;;;;29.10;18.80;;;;;;;5.56;72.43;98253.34;6046716;23;20212;-86
2020/12/09 09:51:29;;;;;;;28.27;19.23;;;;;;;5.37;73.18;98258.91;6048142;23;20212;-86
2020/12/09 09:53:55;;;;;;;28.35;19.42;;;;;;;5.33;73.30;98248.53;6048650;23;20200;-87
2020/12/09 09:56:22;;;;;;;30.92;19.90;;;;;;;5.27;73.67;98255.03;6046388;23;20550;-88
2020/12/09 09:58:48;;;;;;;30.20;19.85;;;;;;;5.33;73.51;98252.03;6076423;23;20171;-89
2020/12/09 10:01:15;;;;;;;31.00;19.42;;;;;;;5.36;73.35;98251.88;6065899;23;20200;-88
2020/12/09 10:03:42;;;;;;;27.67;18.75;;;;;;;5.33;73.08;98254.69;6056268;23;20267;-88
2020/12/09 10:06:08;;;;;;;32.25;20.25;;;;;;;5.50;72.86;98249.25;6072372;23;20256;-88
2020/12/09 10:08:35;;;;;;;31.98;19.77;;;;;;;5.55;72.29;98252.50;6069732;23;20211;-88
2020/12/09 10:11:03;;;;;;;24.67;17.33;;;;;;;5.83;71.48;98244.56;6073194;23;20203;-88
2020/12/09 10:13:30;;;;;;;25.48;16.70;;;;;;;5.71;70.61;98245.28;6061392;23;20208;-87
2020/12/09 10:15:57;;;;;;;26.50;17.33;;;;;;;5.63;71.30;98246.69;6060844;23;20204;-88
2020/12/09 10:18:23;;;;;;;25.98;16.85;;;;;;;5.87;70.06;98242.59;6074664;23;20199;-88
2020/12/09 10:20:50;;;;;;;23.58;16.73;;;;;;;5.84;70.05;98235.63;6050698;23;20238;-89
2020/12/09 10:23:16;;;;;;;23.02;15.40;;;;;;;5.77;70.87;98236.91;6071395;23;20187;-89
2020/12/09 10:25:42;;;;;;;26.10;16.30;;;;;;;5.78;70.83;98237.78;6053990;23;20198;-89
2020/12/09 10:28:09;;;;;;;24.02;15.90;;;;;;;5.67;70.92;98233.09;6055232;23;20208;-87
2020/12/09 10:30:37;;;;;;;25.65;15.13;;;;;;;5.72;71.03;98225.66;6058950;23;20216;-88
2020/12/09 10:33:03;;;;;;;23.20;15.80;;;;;;;5.64;71.12;98233.28;6072223;23;20242;-89
2020/12/09 10:35:29;;;;;;;26.13;16.80;;;;;;;5.59;71.80;98223.84;6053682;23;20204;-88
2020/12/09 10:37:56;;;;;;;26.15;16.42;;;;;;;5.80;71.07;98235.91;6058046;23;20183;-88
2020/12/09 10:40:22;;;;;;;26.50;18.00;;;;;;;5.73;71.09;98235.41;6048829;23;20223;-87
2020/12/09 10:42:48;;;;;;;26.88;17.20;;;;;;;5.84;70.94;98234.78;6078922;23;20263;-88
2020/12/09 10:45:19;;;;;;;27.55;17.92;;;;;;;5.77;70.57;98233.41;6052273;23;20212;-88
2020/12/09 10:47:46;;;;;;;26.23;18.38;;;;;;;5.65;71.39;98231.47;6050559;23;20669;-88
2020/12/09 10:50:12;;;;;;;31.52;19.30;;;;;;;5.59;71.94;98229.16;6047246;23;20195;-87
2020/12/09 10:52:38;;;;;;;30.35;18.63;;;;;;;5.51;72.14;98234.13;6076875;23;20179;-85
2020/12/09 10:55:07;;;;;;;33.72;20.77;;;;;;;5.47;72.84;98229.91;6083815;23;20279;-84
2020/12/09 10:57:34;;;;;;;31.98;21.40;;;;;;;5.40;73.08;98213.41;6023863;23;20208;-88
2020/12/09 11:00:04;;;;;;;35.22;20.10;;;;;;;5.47;73.11;98217.44;6090861;23;20209;-89
2020/12/09 11:02:33;;;;;;;28.98;20.05;;;;;;;5.46;73.45;98215.69;6060454;23;20267;-89
2020/12/09 11:04:59;;;;;;;33.60;20.27;;;;;;;5.51;73.40;98218.13;6050376;23;20219;-89
2020/12/09 11:07:25;;;;;;;35.28;21.10;;;;;;;5.46;73.67;98218.38;6056238;23;20291;-88
2020/12/09 11:09:52;;;;;;;36.95;20.80;;;;;;;5.45;73.86;98213.16;6028719;23;20203;-88
2020/12/09 11:12:20;;;;;;;31.10;20.15;;;;;;;5.51;73.70;98205.63;5987107;23;20211;-88
2020/12/09 11:14:49;;;;;;;29.58;19.05;;;;;;;5.59;73.58;98205.19;6075369;23;20238;-88
2020/12/09 11:17:16;;;;;;;27.85;19.10;;;;;;;5.56;73.69;98208.00;6060617;23;20171;-88
2020/12/09 11:19:43;;;;;;;31.45;19.60;;;;;;;5.51;74.35;98205.63;6061838;23;20253;-88
2020/12/09 11:22:10;;;;;;;34.28;21.10;;;;;;;5.47;74.97;98208.56;6053554;23;20231;-88
2020/12/09 11:24:37;;;;;;;35.60;21.15;;;;;;;5.37;75.29;98202.94;6050552;23;20208;-88
2020/12/09 11:27:04;;;;;;;31.52;19.80;;;;;;;5.28;76.13;98206.16;6054544;23;20200;-87
2020/12/09 11:29:31;;;;;;;34.28;20.60;;;;;;;5.37;76.14;98200.25;6057304;23;20227;-88
2020/12/09 11:31:59;;;;;;;32.60;19.67;;;;;;;5.27;76.45;98204.41;6057934;23;20192;-88